createdAt,value
2019-02-17T00:01:40.858Z,94.30
2019-02-17T00:04:12.139Z,93.70
2019-02-17T00:06:43.461Z,93.70
2019-02-17T00:09:14.739Z,93.70
2019-02-17T00:11:46.050Z,93.40
2019-02-17T00:14:17.458Z,93.20
2019-02-17T00:16:48.777Z,93.20
2019-02-17T00:19:20.142Z,93.20
2019-02-17T00:21:51.454Z,93.10
2019-02-17T00:24:22.747Z,93.00
2019-02-17T00:26:53.967Z,93.10
2019-02-17T00:29:25.297Z,93.30
2019-02-17T00:31:56.733Z,93.10
2019-02-17T00:34:28.100Z,92.90
2019-02-17T00:36:59.514Z,92.70
2019-02-17T00:39:30.823Z,93.10
2019-02-17T00:42:02.194Z,93.60
2019-02-17T00:44:33.522Z,93.30
2019-02-17T00:47:04.824Z,93.20
2019-02-17T00:49:36.217Z,93.20
2019-02-17T00:52:07.628Z,92.90
2019-02-17T00:54:38.927Z,92.70
2019-02-17T00:57:10.226Z,92.90
2019-02-17T00:59:41.638Z,93.30
2019-02-17T01:02:13.069Z,93.20
2019-02-17T01:04:44.402Z,93.30
2019-02-17T01:07:15.832Z,92.90
2019-02-17T01:09:47.116Z,92.80
2019-02-17T01:12:18.456Z,92.70
2019-02-17T01:14:51.106Z,92.50
2019-02-17T01:17:22.476Z,93.00
2019-02-17T01:19:53.845Z,93.20
2019-02-17T01:22:25.152Z,93.10
2019-02-17T01:24:56.434Z,93.00
2019-02-17T01:27:27.864Z,92.70
2019-02-17T01:29:59.162Z,92.60
2019-02-17T01:32:30.516Z,92.60
2019-02-17T01:35:01.905Z,93.20
2019-02-17T01:37:33.211Z,93.40
2019-02-17T01:40:07.151Z,92.70
2019-02-17T01:42:39.863Z,92.60
2019-02-17T01:45:11.462Z,92.60
2019-02-17T01:47:42.896Z,93.00
2019-02-17T01:50:14.663Z,93.50
2019-02-17T01:52:46.094Z,94.10
2019-02-17T01:55:17.380Z,93.70
2019-02-17T01:57:48.792Z,93.20
2019-02-17T02:00:20.115Z,93.30
2019-02-17T02:02:51.618Z,93.40
2019-02-17T02:05:23.001Z,93.30
2019-02-17T02:07:54.342Z,93.40
2019-02-17T02:10:25.642Z,93.10
2019-02-17T02:12:56.922Z,93.20
2019-02-17T02:15:28.175Z,93.10
2019-02-17T02:17:59.534Z,93.10
2019-02-17T02:20:30.994Z,92.60
2019-02-17T02:23:02.329Z,92.90
2019-02-17T02:25:33.603Z,92.80
2019-02-17T02:28:04.912Z,93.50
2019-02-17T02:30:36.286Z,93.20
2019-02-17T02:33:07.598Z,93.00
2019-02-17T02:35:38.962Z,93.80
2019-02-17T02:38:10.279Z,93.40
2019-02-17T02:40:41.689Z,93.30
2019-02-17T02:43:13.011Z,93.90
2019-02-17T02:45:44.281Z,93.90
2019-02-17T02:48:16.039Z,93.30
2019-02-17T02:50:47.429Z,93.50
2019-02-17T02:53:18.858Z,93.20
2019-02-17T02:55:50.279Z,93.60
2019-02-17T02:58:21.601Z,93.30
2019-02-17T03:00:53.017Z,93.40
2019-02-17T03:03:24.470Z,93.10
2019-02-17T03:06:09.439Z,92.90
2019-02-17T03:08:40.811Z,92.50
2019-02-17T03:11:12.030Z,92.60
2019-02-17T03:13:43.454Z,92.50
2019-02-17T03:16:14.847Z,92.40
2019-02-17T03:18:46.157Z,92.70
2019-02-17T03:21:17.423Z,92.70
2019-02-17T03:23:48.872Z,92.80
2019-02-17T03:26:23.335Z,92.90
2019-02-17T03:28:54.750Z,93.00
2019-02-17T03:31:26.026Z,92.90
2019-02-17T03:33:57.486Z,93.10
2019-02-17T03:36:28.744Z,93.00
2019-02-17T03:39:00.159Z,92.90
2019-02-17T03:41:33.257Z,92.70
2019-02-17T03:44:05.861Z,92.70
2019-02-17T03:46:37.270Z,92.30
2019-02-17T03:49:08.726Z,92.50
2019-02-17T03:54:37.278Z,92.20
2019-02-17T03:57:08.558Z,92.40
2019-02-17T03:59:40.002Z,92.60
2019-02-17T04:02:11.391Z,92.80
2019-02-17T04:04:42.772Z,92.50
2019-02-17T04:07:14.086Z,92.70
2019-02-17T04:09:45.486Z,92.10
2019-02-17T04:12:16.881Z,92.40
2019-02-17T04:14:48.233Z,92.40
2019-02-17T04:17:20.189Z,92.60
2019-02-17T04:19:57.453Z,92.50
2019-02-17T04:22:29.138Z,92.90
2019-02-17T04:25:04.165Z,93.00
2019-02-17T04:27:39.752Z,92.60
2019-02-17T04:30:13.067Z,93.10
2019-02-17T04:32:44.362Z,92.80
2019-02-17T04:35:15.787Z,92.50
2019-02-17T04:37:47.114Z,92.50
2019-02-17T04:40:18.947Z,92.40
2019-02-17T04:42:50.358Z,92.50
2019-02-17T04:45:22.306Z,92.50
2019-02-17T04:47:53.713Z,92.40
2019-02-17T04:50:25.154Z,92.40
2019-02-17T04:52:56.461Z,92.20
2019-02-17T04:55:30.451Z,92.00
2019-02-17T04:58:02.658Z,92.30
2019-02-17T05:00:40.309Z,92.00
2019-02-17T05:03:07.176Z,92.10
2019-02-17T05:05:38.667Z,92.50
2019-02-17T05:08:12.137Z,92.30
2019-02-17T05:10:43.689Z,92.20
2019-02-17T05:13:15.098Z,92.30
2019-02-17T05:15:46.583Z,92.50
2019-02-17T05:18:17.883Z,92.80
2019-02-17T05:20:49.280Z,92.70
2019-02-17T05:23:20.560Z,92.50
2019-02-17T05:25:51.986Z,92.50
2019-02-17T05:28:23.371Z,92.70
2019-02-17T05:30:54.790Z,92.70
2019-02-17T05:33:26.068Z,92.20
2019-02-17T05:35:57.611Z,92.50
2019-02-17T05:38:29.011Z,92.50
2019-02-17T05:41:00.275Z,92.50
2019-02-17T05:43:31.659Z,92.50
2019-02-17T05:46:02.988Z,92.40
2019-02-17T05:48:34.350Z,92.20
2019-02-17T05:51:36.223Z,92.30
2019-02-17T05:53:50.038Z,92.50
2019-02-17T05:56:21.457Z,92.60
2019-02-17T05:58:52.709Z,92.90
2019-02-17T06:01:24.037Z,93.10
2019-02-17T06:03:55.310Z,93.30
2019-02-17T06:06:28.001Z,93.00
2019-02-17T06:08:59.390Z,92.70
2019-02-17T06:11:30.845Z,92.70
2019-02-17T06:14:02.105Z,92.60
2019-02-17T06:16:33.433Z,92.40
2019-02-17T06:19:04.714Z,92.80
2019-02-17T06:21:36.061Z,93.00
2019-02-17T06:24:07.441Z,93.10
2019-02-17T06:26:38.883Z,92.70
2019-02-17T06:29:10.180Z,93.40
2019-02-17T06:31:41.614Z,93.00
2019-02-17T06:34:13.000Z,93.20
2019-02-17T06:36:44.447Z,93.30
2019-02-17T06:39:17.071Z,92.90
2019-02-17T06:41:48.825Z,92.50
2019-02-17T06:44:21.882Z,92.60
2019-02-17T06:46:56.110Z,92.80
2019-02-17T06:49:27.519Z,93.00
2019-02-17T06:51:58.759Z,93.10
2019-02-17T06:54:30.163Z,93.60
2019-02-17T06:57:03.124Z,93.40
2019-02-17T06:59:34.443Z,93.60
2019-02-17T07:02:05.769Z,94.00
2019-02-17T07:04:41.737Z,94.20
2019-02-17T07:07:13.321Z,93.90
2019-02-17T07:09:45.362Z,93.70
2019-02-17T07:12:16.900Z,94.30
2019-02-17T07:14:48.441Z,94.40
2019-02-17T07:17:25.499Z,94.30
2019-02-17T07:19:58.954Z,94.60
2019-02-17T07:22:30.711Z,94.60
2019-02-17T07:25:05.297Z,94.40
2019-02-17T07:27:36.937Z,94.70
2019-02-17T07:30:08.194Z,94.50
2019-02-17T07:32:39.538Z,94.50
2019-02-17T07:35:10.823Z,94.40
2019-02-17T07:37:42.129Z,94.40
2019-02-17T07:40:13.422Z,94.60
2019-02-17T07:42:44.767Z,94.70
2019-02-17T07:45:16.038Z,94.70
2019-02-17T07:47:47.359Z,94.80
2019-02-17T07:50:18.628Z,94.80
2019-02-17T07:52:50.071Z,94.70
2019-02-17T07:55:21.434Z,94.60
2019-02-17T07:57:52.853Z,94.50
2019-02-17T08:00:24.087Z,95.00
2019-02-17T08:02:55.484Z,94.60
2019-02-17T08:05:26.844Z,94.70
2019-02-17T08:08:01.022Z,94.50
2019-02-17T08:10:32.390Z,94.40
2019-02-17T08:13:03.810Z,94.40
2019-02-17T08:15:35.082Z,94.30
2019-02-17T08:18:06.506Z,94.40
2019-02-17T08:20:37.862Z,94.50
2019-02-17T08:23:09.173Z,94.30
2019-02-17T08:25:42.027Z,94.50
2019-02-17T08:28:13.450Z,94.20
2019-02-17T08:30:44.918Z,94.10
2019-02-17T08:36:06.638Z,94.00
2019-02-17T08:38:38.098Z,93.80
2019-02-17T08:41:09.411Z,93.50
2019-02-17T08:43:42.198Z,93.50
2019-02-17T08:46:26.397Z,93.40
2019-02-17T08:48:57.708Z,93.40
2019-02-17T08:51:28.991Z,92.80
2019-02-17T08:54:00.320Z,92.10
2019-02-17T08:56:31.566Z,92.30
2019-02-17T08:59:02.894Z,91.60
2019-02-17T09:01:34.270Z,89.30
2019-02-17T09:04:06.950Z,85.90
2019-02-17T09:06:38.286Z,85.10
2019-02-17T09:09:09.632Z,83.00
2019-02-17T09:11:41.061Z,80.00
2019-02-17T09:14:12.360Z,77.90
2019-02-17T09:16:43.652Z,78.10
2019-02-17T09:19:15.127Z,75.50
2019-02-17T09:21:46.382Z,75.50
2019-02-17T09:24:17.853Z,75.50
2019-02-17T09:26:49.086Z,74.40
2019-02-17T09:29:20.531Z,75.50
2019-02-17T09:31:51.892Z,73.50
2019-02-17T09:34:23.212Z,72.80
2019-02-17T09:36:54.573Z,72.60
2019-02-17T09:39:27.275Z,71.00
2019-02-17T09:41:58.596Z,71.40
2019-02-17T09:44:29.922Z,71.60
2019-02-17T09:47:01.281Z,71.00
2019-02-17T09:49:32.585Z,69.10
2019-02-17T09:52:03.850Z,68.90
2019-02-17T09:54:35.174Z,67.30
2019-02-17T09:57:13.922Z,67.40
2019-02-17T09:59:45.351Z,67.20
2019-02-17T10:02:25.996Z,67.70
2019-02-17T10:04:49.787Z,66.80
2019-02-17T10:07:22.654Z,66.50
2019-02-17T10:09:54.099Z,66.00
2019-02-17T10:12:25.443Z,66.40
2019-02-17T10:14:58.103Z,65.80
2019-02-17T10:17:29.402Z,64.70
2019-02-17T10:20:00.769Z,63.80
2019-02-17T10:22:32.050Z,63.90
2019-02-17T10:25:03.519Z,63.10
2019-02-17T10:27:34.811Z,62.50
2019-02-17T10:30:10.540Z,62.60
2019-02-17T10:32:44.370Z,62.70
2019-02-17T10:35:15.796Z,62.00
2019-02-17T10:37:47.219Z,60.50
2019-02-17T10:40:20.175Z,59.70
2019-02-17T10:42:52.253Z,58.60
2019-02-17T10:45:23.547Z,58.80
2019-02-17T10:47:57.301Z,57.50
2019-02-17T10:50:28.851Z,58.10
2019-02-17T10:53:00.830Z,58.10
2019-02-17T10:55:33.111Z,58.50
2019-02-17T10:58:05.353Z,58.70
2019-02-17T11:00:36.777Z,58.10
2019-02-17T11:03:08.549Z,57.90
2019-02-17T11:05:41.274Z,56.70
2019-02-17T11:08:14.376Z,56.30
2019-02-17T11:10:48.157Z,56.00
2019-02-17T11:13:19.672Z,55.90
2019-02-17T11:15:51.506Z,55.50
2019-02-17T11:18:24.192Z,54.90
2019-02-17T11:20:55.651Z,54.80
2019-02-17T11:23:27.804Z,54.80
2019-02-17T11:26:00.585Z,55.60
2019-02-17T11:28:32.265Z,53.60
2019-02-17T11:31:03.536Z,53.80
2019-02-17T11:33:36.179Z,53.50
2019-02-17T11:36:08.915Z,53.10
2019-02-17T11:38:40.191Z,54.30
2019-02-17T11:41:12.649Z,53.70
2019-02-17T11:43:44.179Z,53.40
2019-02-17T11:46:15.612Z,53.60
2019-02-17T11:48:47.024Z,53.60
2019-02-17T11:51:18.938Z,53.40
2019-02-17T11:53:53.650Z,52.80
2019-02-17T11:56:26.292Z,51.80
2019-02-17T11:58:57.701Z,52.70
2019-02-17T12:01:29.947Z,52.60
2019-02-17T12:04:03.003Z,52.60
2019-02-17T12:06:36.184Z,53.10
2019-02-17T12:09:08.803Z,51.80
2019-02-17T12:11:43.065Z,51.20
2019-02-17T12:14:18.057Z,52.10
2019-02-17T12:16:49.479Z,51.00
2019-02-17T12:19:20.849Z,51.40
2019-02-17T12:21:55.317Z,50.80
2019-02-17T12:24:28.405Z,50.80
2019-02-17T12:27:05.371Z,50.10
2019-02-17T12:29:42.298Z,50.20
2019-02-17T12:32:14.014Z,50.70
2019-02-17T12:34:45.354Z,50.30
2019-02-17T12:37:16.602Z,50.70
2019-02-17T12:39:51.803Z,50.00
2019-02-17T12:42:23.106Z,49.70
2019-02-17T12:44:56.970Z,49.20
2019-02-17T12:47:27.441Z,49.70
2019-02-17T12:49:58.791Z,49.80
2019-02-17T12:52:30.101Z,49.70
2019-02-17T12:55:01.373Z,49.40
2019-02-17T12:57:32.655Z,49.20
2019-02-17T13:00:06.109Z,49.70
2019-02-17T13:02:37.387Z,49.20
2019-02-17T13:05:09.636Z,48.40
2019-02-17T13:07:42.737Z,48.40
2019-02-17T13:10:15.712Z,48.10
2019-02-17T13:12:47.000Z,48.20
2019-02-17T13:15:18.256Z,48.30
2019-02-17T13:17:49.513Z,48.80
2019-02-17T13:20:20.736Z,49.10
2019-02-17T13:22:51.894Z,48.90
2019-02-17T13:25:24.512Z,49.50
2019-02-17T13:27:57.103Z,49.60
2019-02-17T13:30:28.247Z,49.70
2019-02-17T13:32:59.857Z,49.40
2019-02-17T13:35:31.139Z,49.10
2019-02-17T13:38:04.010Z,49.40
2019-02-17T13:40:35.451Z,49.40
2019-02-17T13:43:06.821Z,49.60
2019-02-17T13:45:38.012Z,49.70
2019-02-17T13:48:09.361Z,49.50
2019-02-17T13:50:41.214Z,49.60
2019-02-17T13:53:14.260Z,49.40
2019-02-17T13:55:46.533Z,49.90
2019-02-17T13:58:20.119Z,49.10
2019-02-17T14:00:53.514Z,49.50
2019-02-17T14:03:27.835Z,48.90
2019-02-17T14:06:01.381Z,48.70
2019-02-17T14:08:33.693Z,49.60
2019-02-17T14:11:04.951Z,49.70
2019-02-17T14:13:36.231Z,49.00
2019-02-17T14:16:07.612Z,49.40
2019-02-17T14:18:40.151Z,50.00
2019-02-17T14:21:13.940Z,50.70
2019-02-17T14:23:45.350Z,51.30
2019-02-17T14:26:16.520Z,51.10
2019-02-17T14:28:50.182Z,50.60
2019-02-17T14:31:22.310Z,50.90
2019-02-17T14:33:58.556Z,51.30
2019-02-17T14:36:29.321Z,51.30
2019-02-17T14:39:01.154Z,51.30
2019-02-17T14:41:34.411Z,51.60
2019-02-17T14:44:07.006Z,51.70
2019-02-17T14:46:39.723Z,52.00
2019-02-17T14:49:11.262Z,52.60
2019-02-17T14:51:42.586Z,52.90
2019-02-17T14:54:13.932Z,53.30
2019-02-17T14:56:45.611Z,53.50
2019-02-17T14:59:17.366Z,53.80
2019-02-17T15:01:49.351Z,54.10
2019-02-17T15:04:22.924Z,55.00
2019-02-17T15:06:55.481Z,55.00
2019-02-17T15:09:28.165Z,55.30
2019-02-17T15:11:59.967Z,55.00
2019-02-17T15:14:32.206Z,55.40
2019-02-17T15:17:05.136Z,55.80
2019-02-17T15:19:38.553Z,56.20
2019-02-17T15:22:12.203Z,56.80
2019-02-17T15:24:46.403Z,57.30
2019-02-17T15:27:21.205Z,58.20
2019-02-17T15:29:55.354Z,59.50
2019-02-17T15:32:30.130Z,61.50
2019-02-17T15:35:03.323Z,62.80
2019-02-17T15:37:36.371Z,62.60
2019-02-17T15:40:13.464Z,64.30
2019-02-17T15:42:48.161Z,65.00
2019-02-17T15:45:21.458Z,66.80
2019-02-17T15:47:53.080Z,67.30
2019-02-17T15:50:24.991Z,67.00
2019-02-17T15:52:57.351Z,67.80
2019-02-17T15:55:29.560Z,69.70
2019-02-17T15:58:01.294Z,70.70
2019-02-17T16:00:34.060Z,71.90
2019-02-17T16:03:05.538Z,73.10
2019-02-17T16:05:36.964Z,74.60
2019-02-17T16:08:08.572Z,76.40
2019-02-17T16:10:40.301Z,76.90
2019-02-17T16:13:11.949Z,77.40
2019-02-17T16:15:43.332Z,76.30
2019-02-17T16:18:14.900Z,76.20
2019-02-17T16:20:47.020Z,76.20
2019-02-17T16:23:18.901Z,76.60
2019-02-17T16:25:50.700Z,77.40
2019-02-17T16:28:22.306Z,77.00
2019-02-17T16:30:53.683Z,77.60
2019-02-17T16:33:25.065Z,77.50
2019-02-17T16:35:56.453Z,77.30
2019-02-17T16:38:27.820Z,77.10
2019-02-17T16:41:00.877Z,77.40
2019-02-17T16:43:32.959Z,77.20
2019-02-17T16:46:05.663Z,78.80
2019-02-17T16:48:38.282Z,79.40
2019-02-17T16:51:10.186Z,80.20
2019-02-17T16:53:42.921Z,80.10
2019-02-17T16:56:16.534Z,81.40
2019-02-17T16:58:48.910Z,83.70
2019-02-17T17:01:22.527Z,84.00
2019-02-17T17:03:55.291Z,82.90
2019-02-17T17:06:28.360Z,83.30
2019-02-17T17:09:00.179Z,83.40
2019-02-17T17:11:32.533Z,84.20
2019-02-17T17:14:08.980Z,84.30
2019-02-17T17:16:38.825Z,85.40
2019-02-17T17:19:10.178Z,84.10
2019-02-17T17:21:41.802Z,85.00
2019-02-17T17:24:13.906Z,85.80
2019-02-17T17:26:46.394Z,85.70
2019-02-17T17:29:19.612Z,86.70
2019-02-17T17:31:52.171Z,86.00
2019-02-17T17:34:24.652Z,85.70
2019-02-17T17:36:57.658Z,87.80
2019-02-17T17:39:30.752Z,88.60
2019-02-17T17:42:02.929Z,88.90
2019-02-17T17:44:34.871Z,88.50
2019-02-17T17:47:06.312Z,88.10
2019-02-17T17:49:37.710Z,87.40
2019-02-17T17:52:10.479Z,87.50
2019-02-17T17:54:42.680Z,88.20
2019-02-17T17:57:15.321Z,89.20
2019-02-17T17:59:47.362Z,89.40
2019-02-17T18:02:18.840Z,88.90
2019-02-17T18:04:50.560Z,88.90
2019-02-17T18:07:23.003Z,88.10
2019-02-17T18:09:55.026Z,89.00
2019-02-17T18:12:27.039Z,89.10
2019-02-17T18:15:00.041Z,89.70
2019-02-17T18:17:32.548Z,89.10
2019-02-17T18:20:06.751Z,89.30
2019-02-17T18:22:38.026Z,90.00
2019-02-17T18:25:14.586Z,89.60
2019-02-17T18:27:46.983Z,89.60
2019-02-17T18:30:19.804Z,89.80
2019-02-17T18:32:52.351Z,90.30
2019-02-17T18:35:25.188Z,90.00
2019-02-17T18:37:59.159Z,89.20
2019-02-17T18:40:32.193Z,89.80
2019-02-17T18:43:04.560Z,90.20
2019-02-17T18:45:36.833Z,90.50
2019-02-17T18:48:11.381Z,90.50
2019-02-17T18:50:46.153Z,90.20
2019-02-17T18:53:20.034Z,90.20
2019-02-17T18:55:51.958Z,90.10
2019-02-17T18:58:25.161Z,90.10
2019-02-17T19:00:57.857Z,90.20
2019-02-17T19:03:29.303Z,90.40
2019-02-17T19:06:05.188Z,90.40
2019-02-17T19:08:38.872Z,90.40
2019-02-17T19:11:10.281Z,90.50
2019-02-17T19:13:41.548Z,90.80
2019-02-17T19:16:12.786Z,90.30
2019-02-17T19:18:44.055Z,91.00
2019-02-17T19:21:15.285Z,91.00
2019-02-17T19:23:46.572Z,90.90
2019-02-17T19:26:17.912Z,90.60
2019-02-17T19:28:49.288Z,91.00
2019-02-17T19:31:20.517Z,90.50
2019-02-17T19:33:53.128Z,90.90
2019-02-17T19:36:24.497Z,90.90
2019-02-17T19:38:56.798Z,91.10
2019-02-17T19:41:28.027Z,91.00
2019-02-17T19:43:59.233Z,90.80
2019-02-17T19:46:30.429Z,90.80
2019-02-17T19:49:01.790Z,91.30
2019-02-17T19:51:33.138Z,90.80
2019-02-17T19:54:04.453Z,90.90
2019-02-17T19:56:35.594Z,91.00
2019-02-17T19:59:06.974Z,90.90
2019-02-17T20:01:38.251Z,91.30
2019-02-17T20:04:11.102Z,91.60
2019-02-17T20:06:42.432Z,91.00
2019-02-17T20:09:15.697Z,91.50
2019-02-17T20:11:47.004Z,91.60
2019-02-17T20:14:18.744Z,91.50
2019-02-17T20:16:50.788Z,91.10
2019-02-17T20:19:22.113Z,91.00
2019-02-17T20:21:55.032Z,91.80
2019-02-17T20:24:27.090Z,91.40
2019-02-17T20:27:00.801Z,91.90
2019-02-17T20:29:31.976Z,91.50
2019-02-17T20:32:03.167Z,92.20
2019-02-17T20:34:34.443Z,91.90
2019-02-17T20:37:05.831Z,91.50
2019-02-17T20:39:37.147Z,92.10
2019-02-17T20:42:08.383Z,91.70
2019-02-17T20:44:39.580Z,91.60
2019-02-17T20:47:10.799Z,91.50
2019-02-17T20:49:42.207Z,91.70
2019-02-17T20:52:13.679Z,91.50
2019-02-17T20:54:46.224Z,91.80
2019-02-17T20:57:17.698Z,92.30
2019-02-17T20:59:48.891Z,92.70
2019-02-17T21:02:20.063Z,92.10
2019-02-17T21:04:51.355Z,92.50
2019-02-17T21:07:22.625Z,92.40
2019-02-17T21:09:54.045Z,92.20
2019-02-17T21:12:25.238Z,91.70
2019-02-17T21:14:56.427Z,92.30
2019-02-17T21:17:27.786Z,92.90
2019-02-17T21:19:59.080Z,92.40
2019-02-17T21:22:31.792Z,92.40
2019-02-17T21:25:03.210Z,92.50
2019-02-17T21:27:34.540Z,92.20
2019-02-17T21:30:18.748Z,92.40
2019-02-17T21:32:50.111Z,92.20
2019-02-17T21:35:21.438Z,92.50
2019-02-17T21:37:52.782Z,92.10
2019-02-17T21:40:24.198Z,92.20
2019-02-17T21:42:55.462Z,92.80
2019-02-17T21:45:26.863Z,92.70
2019-02-17T21:47:58.210Z,92.60
2019-02-17T21:50:29.783Z,92.50
2019-02-17T21:53:01.002Z,92.90
2019-02-17T21:55:32.323Z,92.40
2019-02-17T21:58:03.652Z,92.00
2019-02-17T22:00:34.899Z,92.20
2019-02-17T22:03:09.407Z,91.90
2019-02-17T22:05:41.852Z,92.20
2019-02-17T22:08:14.434Z,93.00
2019-02-17T22:10:45.873Z,93.20
2019-02-17T22:13:17.144Z,92.80
2019-02-17T22:15:48.450Z,92.70
2019-02-17T22:18:21.310Z,92.50
2019-02-17T22:20:57.879Z,92.60
2019-02-17T22:23:29.140Z,92.60
2019-02-17T22:26:01.521Z,92.80
2019-02-17T22:28:33.012Z,92.50
2019-02-17T22:31:26.861Z,92.30
2019-02-17T22:33:58.202Z,92.50
2019-02-17T22:36:43.500Z,92.90
2019-02-17T22:39:09.419Z,93.30
2019-02-17T22:41:40.930Z,93.30
2019-02-17T22:44:12.587Z,93.50
2019-02-17T22:46:43.918Z,93.00
2019-02-17T22:49:15.207Z,92.80
2019-02-17T22:51:46.976Z,93.00
2019-02-17T22:54:18.219Z,92.60
2019-02-17T22:56:49.620Z,92.70
2019-02-17T22:59:20.859Z,92.30
2019-02-17T23:01:56.670Z,92.20
2019-02-17T23:04:28.938Z,92.30
2019-02-17T23:07:00.238Z,92.60
2019-02-17T23:09:31.599Z,92.70
2019-02-17T23:12:03.161Z,92.60
2019-02-17T23:14:35.508Z,93.20
2019-02-17T23:17:06.926Z,93.50
2019-02-17T23:19:38.312Z,93.60
2019-02-17T23:22:09.718Z,93.50
2019-02-17T23:24:41.102Z,93.30
2019-02-17T23:27:13.513Z,93.10
2019-02-17T23:29:44.817Z,93.10
2019-02-17T23:32:18.642Z,92.80
2019-02-17T23:34:49.906Z,92.90
2019-02-17T23:37:21.212Z,92.60
2019-02-17T23:39:52.571Z,93.10
2019-02-17T23:42:23.969Z,92.90
2019-02-17T23:44:55.222Z,93.00
2019-02-17T23:47:26.669Z,92.60
2019-02-17T23:49:57.955Z,92.90
2019-02-17T23:52:29.401Z,93.30
2019-02-17T23:55:00.811Z,93.80
2019-02-17T23:57:32.777Z,93.40
